sensor_id;sensor_type;location;lat;lon;timestamp;P1;durP1;ratioP1;P2;durP2;ratioP2
74233;SDS011;62591;55.764;37.718;2024-03-02T00:00:33;52.83;;;25.25;;
74233;SDS011;62591;55.764;37.718;2024-03-02T00:03:05;52.05;;;26.20;;
74233;SDS011;62591;55.764;37.718;2024-03-02T00:05:39;61.92;;;27.50;;
74233;SDS011;62591;55.764;37.718;2024-03-02T00:08:14;51.08;;;25.30;;
74233;SDS011;62591;55.764;37.718;2024-03-02T00:10:59;54.67;;;28.05;;
74233;SDS011;62591;55.764;37.718;2024-03-02T00:13:32;58.65;;;26.00;;
74233;SDS011;62591;55.764;37.718;2024-03-02T00:16:06;56.33;;;26.35;;
74233;SDS011;62591;55.764;37.718;2024-03-02T00:18:37;58.42;;;27.73;;
74233;SDS011;62591;55.764;37.718;2024-03-02T00:21:13;55.33;;;25.15;;
74233;SDS011;62591;55.764;37.718;2024-03-02T00:23:46;54.88;;;24.80;;
74233;SDS011;62591;55.764;37.718;2024-03-02T00:26:19;47.17;;;24.25;;
74233;SDS011;62591;55.764;37.718;2024-03-02T00:28:55;59.00;;;25.02;;
74233;SDS011;62591;55.764;37.718;2024-03-02T00:31:27;60.33;;;26.55;;
74233;SDS011;62591;55.764;37.718;2024-03-02T00:34:01;53.95;;;25.80;;
74233;SDS011;62591;55.764;37.718;2024-03-02T00:36:38;52.42;;;26.23;;
74233;SDS011;62591;55.764;37.718;2024-03-02T00:39:11;55.55;;;26.33;;
74233;SDS011;62591;55.764;37.718;2024-03-02T00:41:45;56.05;;;25.65;;
74233;SDS011;62591;55.764;37.718;2024-03-02T00:44:22;50.55;;;25.40;;
74233;SDS011;62591;55.764;37.718;2024-03-02T00:47:01;60.95;;;27.13;;
74233;SDS011;62591;55.764;37.718;2024-03-02T00:49:35;53.25;;;26.38;;
74233;SDS011;62591;55.764;37.718;2024-03-02T00:52:09;58.25;;;26.08;;
74233;SDS011;62591;55.764;37.718;2024-03-02T00:54:40;55.53;;;24.58;;
74233;SDS011;62591;55.764;37.718;2024-03-02T00:57:10;54.13;;;25.27;;
74233;SDS011;62591;55.764;37.718;2024-03-02T00:59:45;56.25;;;26.55;;
74233;SDS011;62591;55.764;37.718;2024-03-02T01:02:17;51.08;;;25.27;;
74233;SDS011;62591;55.764;37.718;2024-03-02T01:04:47;57.60;;;26.92;;
74233;SDS011;62591;55.764;37.718;2024-03-02T01:07:19;50.38;;;25.38;;
74233;SDS011;62591;55.764;37.718;2024-03-02T01:10:00;55.28;;;26.77;;
74233;SDS011;62591;55.764;37.718;2024-03-02T01:15:27;58.70;;;27.05;;
74233;SDS011;62591;55.764;37.718;2024-03-02T01:18:00;54.67;;;26.55;;
74233;SDS011;62591;55.764;37.718;2024-03-02T01:20:35;59.90;;;25.23;;
74233;SDS011;62591;55.764;37.718;2024-03-02T01:23:07;51.70;;;26.15;;
74233;SDS011;62591;55.764;37.718;2024-03-02T01:25:42;52.65;;;25.88;;
74233;SDS011;62591;55.764;37.718;2024-03-02T01:28:13;53.75;;;26.83;;
74233;SDS011;62591;55.764;37.718;2024-03-02T01:30:43;62.33;;;26.35;;
74233;SDS011;62591;55.764;37.718;2024-03-02T01:33:15;59.80;;;26.33;;
74233;SDS011;62591;55.764;37.718;2024-03-02T01:35:47;51.58;;;25.55;;
74233;SDS011;62591;55.764;37.718;2024-03-02T01:38:19;56.58;;;26.58;;
74233;SDS011;62591;55.764;37.718;2024-03-02T01:43:29;55.85;;;25.25;;
74233;SDS011;62591;55.764;37.718;2024-03-02T01:46:01;55.15;;;24.60;;
74233;SDS011;62591;55.764;37.718;2024-03-02T01:48:37;52.05;;;25.20;;
74233;SDS011;62591;55.764;37.718;2024-03-02T01:51:27;51.63;;;25.00;;
74233;SDS011;62591;55.764;37.718;2024-03-02T01:54:02;53.15;;;26.52;;
74233;SDS011;62591;55.764;37.718;2024-03-02T01:56:44;53.45;;;25.55;;
74233;SDS011;62591;55.764;37.718;2024-03-02T01:59:14;55.40;;;26.15;;
74233;SDS011;62591;55.764;37.718;2024-03-02T02:01:52;48.65;;;23.58;;
74233;SDS011;62591;55.764;37.718;2024-03-02T02:04:23;51.22;;;25.30;;
74233;SDS011;62591;55.764;37.718;2024-03-02T02:06:55;54.72;;;25.63;;
74233;SDS011;62591;55.764;37.718;2024-03-02T02:09:27;53.97;;;25.83;;
74233;SDS011;62591;55.764;37.718;2024-03-02T02:11:58;54.05;;;27.27;;
74233;SDS011;62591;55.764;37.718;2024-03-02T02:14:27;51.45;;;26.58;;
74233;SDS011;62591;55.764;37.718;2024-03-02T02:16:58;53.35;;;26.00;;
74233;SDS011;62591;55.764;37.718;2024-03-02T02:19:29;58.00;;;26.35;;
74233;SDS011;62591;55.764;37.718;2024-03-02T02:22:01;52.30;;;24.75;;
74233;SDS011;62591;55.764;37.718;2024-03-02T02:24:35;52.85;;;25.73;;
74233;SDS011;62591;55.764;37.718;2024-03-02T02:27:08;57.05;;;26.05;;
74233;SDS011;62591;55.764;37.718;2024-03-02T02:29:36;52.58;;;26.48;;
74233;SDS011;62591;55.764;37.718;2024-03-02T02:32:09;53.53;;;26.15;;
74233;SDS011;62591;55.764;37.718;2024-03-02T02:34:39;58.53;;;27.83;;
74233;SDS011;62591;55.764;37.718;2024-03-02T02:37:10;51.50;;;25.45;;
74233;SDS011;62591;55.764;37.718;2024-03-02T02:39:41;48.97;;;24.35;;
74233;SDS011;62591;55.764;37.718;2024-03-02T02:42:13;52.55;;;26.80;;
74233;SDS011;62591;55.764;37.718;2024-03-02T02:44:44;50.03;;;24.30;;
74233;SDS011;62591;55.764;37.718;2024-03-02T02:47:18;57.67;;;27.10;;
74233;SDS011;62591;55.764;37.718;2024-03-02T02:49:53;53.13;;;24.98;;
74233;SDS011;62591;55.764;37.718;2024-03-02T02:52:26;57.95;;;25.42;;
74233;SDS011;62591;55.764;37.718;2024-03-02T02:55:03;57.80;;;25.92;;
74233;SDS011;62591;55.764;37.718;2024-03-02T02:57:35;55.15;;;26.45;;
74233;SDS011;62591;55.764;37.718;2024-03-02T03:00:10;51.83;;;26.45;;
74233;SDS011;62591;55.764;37.718;2024-03-02T03:02:45;51.80;;;25.40;;
74233;SDS011;62591;55.764;37.718;2024-03-02T03:05:20;59.63;;;26.67;;
74233;SDS011;62591;55.764;37.718;2024-03-02T03:07:56;50.58;;;26.52;;
74233;SDS011;62591;55.764;37.718;2024-03-02T03:10:29;56.38;;;27.30;;
74233;SDS011;62591;55.764;37.718;2024-03-02T03:13:01;56.25;;;26.88;;
74233;SDS011;62591;55.764;37.718;2024-03-02T03:15:37;54.95;;;25.00;;
74233;SDS011;62591;55.764;37.718;2024-03-02T03:18:06;55.78;;;26.95;;
74233;SDS011;62591;55.764;37.718;2024-03-02T03:20:44;56.60;;;27.23;;
74233;SDS011;62591;55.764;37.718;2024-03-02T03:23:16;63.40;;;28.33;;
74233;SDS011;62591;55.764;37.718;2024-03-02T03:25:50;59.42;;;26.95;;
74233;SDS011;62591;55.764;37.718;2024-03-02T03:28:22;54.63;;;28.38;;
74233;SDS011;62591;55.764;37.718;2024-03-02T03:30:58;56.97;;;26.23;;
74233;SDS011;62591;55.764;37.718;2024-03-02T03:33:30;55.53;;;26.60;;
74233;SDS011;62591;55.764;37.718;2024-03-02T03:36:03;57.42;;;27.45;;
74233;SDS011;62591;55.764;37.718;2024-03-02T03:38:37;51.42;;;26.95;;
74233;SDS011;62591;55.764;37.718;2024-03-02T03:41:11;58.08;;;27.10;;
74233;SDS011;62591;55.764;37.718;2024-03-02T03:43:42;54.67;;;27.23;;
74233;SDS011;62591;55.764;37.718;2024-03-02T03:46:30;51.60;;;27.00;;
74233;SDS011;62591;55.764;37.718;2024-03-02T03:49:00;51.15;;;26.42;;
74233;SDS011;62591;55.764;37.718;2024-03-02T03:51:35;54.47;;;28.08;;
74233;SDS011;62591;55.764;37.718;2024-03-02T03:54:16;51.28;;;28.45;;
74233;SDS011;62591;55.764;37.718;2024-03-02T03:56:50;52.40;;;27.63;;
74233;SDS011;62591;55.764;37.718;2024-03-02T03:59:25;60.90;;;30.50;;
74233;SDS011;62591;55.764;37.718;2024-03-02T04:01:58;58.10;;;29.20;;
74233;SDS011;62591;55.764;37.718;2024-03-02T04:04:29;61.78;;;31.13;;
74233;SDS011;62591;55.764;37.718;2024-03-02T04:07:00;66.28;;;30.90;;
74233;SDS011;62591;55.764;37.718;2024-03-02T04:09:35;65.57;;;31.02;;
74233;SDS011;62591;55.764;37.718;2024-03-02T04:12:04;62.17;;;30.38;;
74233;SDS011;62591;55.764;37.718;2024-03-02T04:14:33;65.60;;;32.70;;
74233;SDS011;62591;55.764;37.718;2024-03-02T04:17:10;73.40;;;32.72;;
74233;SDS011;62591;55.764;37.718;2024-03-02T04:19:40;64.57;;;32.00;;
74233;SDS011;62591;55.764;37.718;2024-03-02T04:22:18;67.78;;;33.00;;
74233;SDS011;62591;55.764;37.718;2024-03-02T04:24:52;63.03;;;32.45;;
74233;SDS011;62591;55.764;37.718;2024-03-02T04:27:25;66.57;;;32.28;;
74233;SDS011;62591;55.764;37.718;2024-03-02T04:29:57;71.13;;;35.33;;
74233;SDS011;62591;55.764;37.718;2024-03-02T04:32:34;68.57;;;33.42;;
74233;SDS011;62591;55.764;37.718;2024-03-02T04:35:03;65.80;;;34.22;;
74233;SDS011;62591;55.764;37.718;2024-03-02T04:37:36;70.18;;;35.03;;
74233;SDS011;62591;55.764;37.718;2024-03-02T04:40:07;66.38;;;33.78;;
74233;SDS011;62591;55.764;37.718;2024-03-02T04:42:44;64.88;;;33.75;;
74233;SDS011;62591;55.764;37.718;2024-03-02T04:45:15;74.00;;;37.78;;
74233;SDS011;62591;55.764;37.718;2024-03-02T04:47:52;74.82;;;35.70;;
74233;SDS011;62591;55.764;37.718;2024-03-02T04:50:21;80.40;;;36.38;;
74233;SDS011;62591;55.764;37.718;2024-03-02T04:52:54;72.13;;;36.67;;
74233;SDS011;62591;55.764;37.718;2024-03-02T04:55:28;78.03;;;42.33;;
74233;SDS011;62591;55.764;37.718;2024-03-02T04:58:15;80.18;;;39.88;;
74233;SDS011;62591;55.764;37.718;2024-03-02T05:00:44;80.70;;;42.05;;
74233;SDS011;62591;55.764;37.718;2024-03-02T05:03:16;86.72;;;45.03;;
74233;SDS011;62591;55.764;37.718;2024-03-02T05:05:48;84.45;;;43.42;;
74233;SDS011;62591;55.764;37.718;2024-03-02T05:08:22;82.57;;;40.35;;
74233;SDS011;62591;55.764;37.718;2024-03-02T05:10:57;80.07;;;40.55;;
74233;SDS011;62591;55.764;37.718;2024-03-02T05:13:53;74.43;;;39.75;;
74233;SDS011;62591;55.764;37.718;2024-03-02T05:16:23;71.88;;;35.55;;
74233;SDS011;62591;55.764;37.718;2024-03-02T05:19:08;74.32;;;36.65;;
74233;SDS011;62591;55.764;37.718;2024-03-02T05:21:42;80.07;;;38.20;;
74233;SDS011;62591;55.764;37.718;2024-03-02T05:24:14;75.90;;;39.60;;
74233;SDS011;62591;55.764;37.718;2024-03-02T05:26:45;85.10;;;41.25;;
74233;SDS011;62591;55.764;37.718;2024-03-02T05:29:16;84.13;;;42.22;;
74233;SDS011;62591;55.764;37.718;2024-03-02T05:31:48;94.97;;;49.78;;
74233;SDS011;62591;55.764;37.718;2024-03-02T05:34:18;98.70;;;51.33;;
74233;SDS011;62591;55.764;37.718;2024-03-02T05:36:48;94.65;;;49.67;;
74233;SDS011;62591;55.764;37.718;2024-03-02T05:39:18;96.15;;;50.38;;
74233;SDS011;62591;55.764;37.718;2024-03-02T05:41:50;97.68;;;51.25;;
74233;SDS011;62591;55.764;37.718;2024-03-02T05:44:20;97.00;;;52.63;;
74233;SDS011;62591;55.764;37.718;2024-03-02T05:46:51;102.45;;;53.03;;
74233;SDS011;62591;55.764;37.718;2024-03-02T05:49:22;95.07;;;47.88;;
74233;SDS011;62591;55.764;37.718;2024-03-02T05:51:55;89.20;;;45.58;;
74233;SDS011;62591;55.764;37.718;2024-03-02T05:54:28;95.40;;;46.92;;
74233;SDS011;62591;55.764;37.718;2024-03-02T05:56:58;86.93;;;44.03;;
74233;SDS011;62591;55.764;37.718;2024-03-02T05:59:46;93.47;;;43.13;;
74233;SDS011;62591;55.764;37.718;2024-03-02T06:02:18;87.13;;;43.40;;
74233;SDS011;62591;55.764;37.718;2024-03-02T06:04:48;79.22;;;40.58;;
74233;SDS011;62591;55.764;37.718;2024-03-02T06:07:20;76.35;;;39.15;;
74233;SDS011;62591;55.764;37.718;2024-03-02T06:09:54;84.07;;;39.47;;
74233;SDS011;62591;55.764;37.718;2024-03-02T06:12:24;72.03;;;38.75;;
74233;SDS011;62591;55.764;37.718;2024-03-02T06:14:55;75.00;;;37.60;;
74233;SDS011;62591;55.764;37.718;2024-03-02T06:17:29;74.25;;;38.60;;
74233;SDS011;62591;55.764;37.718;2024-03-02T06:19:58;71.95;;;36.08;;
74233;SDS011;62591;55.764;37.718;2024-03-02T06:22:48;75.78;;;36.47;;
74233;SDS011;62591;55.764;37.718;2024-03-02T06:25:20;74.28;;;34.53;;
74233;SDS011;62591;55.764;37.718;2024-03-02T06:30:59;63.40;;;32.65;;
74233;SDS011;62591;55.764;37.718;2024-03-02T06:33:29;65.28;;;33.47;;
74233;SDS011;62591;55.764;37.718;2024-03-02T06:36:08;74.25;;;35.60;;
74233;SDS011;62591;55.764;37.718;2024-03-02T06:38:44;69.20;;;33.78;;
74233;SDS011;62591;55.764;37.718;2024-03-02T06:41:34;62.10;;;33.97;;
74233;SDS011;62591;55.764;37.718;2024-03-02T06:44:06;86.60;;;45.83;;
74233;SDS011;62591;55.764;37.718;2024-03-02T06:46:42;73.75;;;37.05;;
74233;SDS011;62591;55.764;37.718;2024-03-02T06:49:16;66.95;;;33.53;;
74233;SDS011;62591;55.764;37.718;2024-03-02T06:51:48;72.57;;;35.97;;
74233;SDS011;62591;55.764;37.718;2024-03-02T06:54:22;71.10;;;35.42;;
74233;SDS011;62591;55.764;37.718;2024-03-02T06:57:15;77.35;;;40.08;;
74233;SDS011;62591;55.764;37.718;2024-03-02T06:59:50;69.28;;;35.97;;
74233;SDS011;62591;55.764;37.718;2024-03-02T07:02:24;74.53;;;36.97;;
74233;SDS011;62591;55.764;37.718;2024-03-02T07:04:54;71.28;;;36.17;;
74233;SDS011;62591;55.764;37.718;2024-03-02T07:07:29;66.03;;;32.28;;
74233;SDS011;62591;55.764;37.718;2024-03-02T07:10:00;67.65;;;32.95;;
74233;SDS011;62591;55.764;37.718;2024-03-02T07:12:30;66.95;;;31.70;;
74233;SDS011;62591;55.764;37.718;2024-03-02T07:15:05;63.72;;;32.63;;
74233;SDS011;62591;55.764;37.718;2024-03-02T07:17:56;63.38;;;33.03;;
74233;SDS011;62591;55.764;37.718;2024-03-02T07:20:25;63.30;;;31.80;;
74233;SDS011;62591;55.764;37.718;2024-03-02T07:22:56;66.38;;;32.15;;
74233;SDS011;62591;55.764;37.718;2024-03-02T07:25:36;63.17;;;32.17;;
74233;SDS011;62591;55.764;37.718;2024-03-02T07:28:14;61.80;;;31.50;;
74233;SDS011;62591;55.764;37.718;2024-03-02T07:30:47;69.07;;;33.55;;
74233;SDS011;62591;55.764;37.718;2024-03-02T07:33:28;69.18;;;34.25;;
74233;SDS011;62591;55.764;37.718;2024-03-02T07:36:02;62.03;;;32.00;;
74233;SDS011;62591;55.764;37.718;2024-03-02T07:38:35;68.15;;;31.88;;
74233;SDS011;62591;55.764;37.718;2024-03-02T07:41:20;63.15;;;32.75;;
74233;SDS011;62591;55.764;37.718;2024-03-02T07:43:49;64.60;;;32.33;;
74233;SDS011;62591;55.764;37.718;2024-03-02T07:46:28;76.18;;;33.67;;
74233;SDS011;62591;55.764;37.718;2024-03-02T07:48:58;71.88;;;33.72;;
74233;SDS011;62591;55.764;37.718;2024-03-02T07:51:35;65.97;;;31.48;;
74233;SDS011;62591;55.764;37.718;2024-03-02T07:54:10;65.47;;;33.13;;
74233;SDS011;62591;55.764;37.718;2024-03-02T07:56:40;61.45;;;31.50;;
74233;SDS011;62591;55.764;37.718;2024-03-02T07:59:16;66.38;;;33.78;;
74233;SDS011;62591;55.764;37.718;2024-03-02T08:01:52;70.03;;;32.67;;
74233;SDS011;62591;55.764;37.718;2024-03-02T08:04:27;64.85;;;31.77;;
74233;SDS011;62591;55.764;37.718;2024-03-02T08:07:00;66.93;;;32.90;;
74233;SDS011;62591;55.764;37.718;2024-03-02T08:09:32;65.07;;;33.47;;
74233;SDS011;62591;55.764;37.718;2024-03-02T08:12:06;60.25;;;29.55;;
74233;SDS011;62591;55.764;37.718;2024-03-02T08:14:44;67.95;;;32.58;;
74233;SDS011;62591;55.764;37.718;2024-03-02T08:17:16;57.47;;;30.20;;
74233;SDS011;62591;55.764;37.718;2024-03-02T08:19:50;61.75;;;31.48;;
74233;SDS011;62591;55.764;37.718;2024-03-02T08:22:20;61.00;;;32.97;;
74233;SDS011;62591;55.764;37.718;2024-03-02T08:24:52;65.20;;;33.88;;
74233;SDS011;62591;55.764;37.718;2024-03-02T08:27:24;70.88;;;33.70;;
74233;SDS011;62591;55.764;37.718;2024-03-02T08:29:53;72.10;;;37.90;;
74233;SDS011;62591;55.764;37.718;2024-03-02T08:32:26;60.92;;;32.80;;
74233;SDS011;62591;55.764;37.718;2024-03-02T08:34:56;61.17;;;32.83;;
74233;SDS011;62591;55.764;37.718;2024-03-02T08:37:31;64.07;;;31.38;;
74233;SDS011;62591;55.764;37.718;2024-03-02T08:40:06;61.90;;;32.70;;
74233;SDS011;62591;55.764;37.718;2024-03-02T08:42:37;57.92;;;27.83;;
74233;SDS011;62591;55.764;37.718;2024-03-02T08:45:09;63.17;;;33.13;;
74233;SDS011;62591;55.764;37.718;2024-03-02T08:47:41;63.97;;;32.13;;
74233;SDS011;62591;55.764;37.718;2024-03-02T08:50:13;70.03;;;34.97;;
74233;SDS011;62591;55.764;37.718;2024-03-02T08:52:48;64.68;;;33.95;;
74233;SDS011;62591;55.764;37.718;2024-03-02T08:55:18;65.20;;;31.33;;
74233;SDS011;62591;55.764;37.718;2024-03-02T08:57:54;60.50;;;32.15;;
74233;SDS011;62591;55.764;37.718;2024-03-02T09:00:23;76.10;;;38.55;;
74233;SDS011;62591;55.764;37.718;2024-03-02T09:03:03;64.70;;;33.97;;
74233;SDS011;62591;55.764;37.718;2024-03-02T09:05:32;62.22;;;33.40;;
74233;SDS011;62591;55.764;37.718;2024-03-02T09:08:04;67.50;;;35.22;;
74233;SDS011;62591;55.764;37.718;2024-03-02T09:10:36;80.45;;;43.90;;
74233;SDS011;62591;55.764;37.718;2024-03-02T09:13:10;66.25;;;33.30;;
74233;SDS011;62591;55.764;37.718;2024-03-02T09:15:41;70.20;;;36.08;;
74233;SDS011;62591;55.764;37.718;2024-03-02T09:18:18;74.20;;;36.10;;
74233;SDS011;62591;55.764;37.718;2024-03-02T09:20:49;64.22;;;31.98;;
74233;SDS011;62591;55.764;37.718;2024-03-02T09:23:24;58.35;;;28.30;;
74233;SDS011;62591;55.764;37.718;2024-03-02T09:25:58;56.45;;;28.05;;
74233;SDS011;62591;55.764;37.718;2024-03-02T09:28:28;61.30;;;28.13;;
74233;SDS011;62591;55.764;37.718;2024-03-02T09:30:58;59.63;;;28.08;;
74233;SDS011;62591;55.764;37.718;2024-03-02T09:33:42;49.65;;;25.90;;
74233;SDS011;62591;55.764;37.718;2024-03-02T09:36:18;48.85;;;26.73;;
74233;SDS011;62591;55.764;37.718;2024-03-02T09:38:49;51.55;;;27.73;;
74233;SDS011;62591;55.764;37.718;2024-03-02T09:41:26;52.63;;;25.90;;
74233;SDS011;62591;55.764;37.718;2024-03-02T09:44:02;46.97;;;25.65;;
74233;SDS011;62591;55.764;37.718;2024-03-02T09:46:33;53.83;;;26.83;;
74233;SDS011;62591;55.764;37.718;2024-03-02T09:49:06;51.35;;;25.80;;
74233;SDS011;62591;55.764;37.718;2024-03-02T09:51:35;49.63;;;25.73;;
74233;SDS011;62591;55.764;37.718;2024-03-02T09:54:10;55.58;;;27.08;;
74233;SDS011;62591;55.764;37.718;2024-03-02T09:56:48;50.85;;;27.80;;
74233;SDS011;62591;55.764;37.718;2024-03-02T09:59:18;57.35;;;27.85;;
74233;SDS011;62591;55.764;37.718;2024-03-02T10:02:01;54.53;;;27.23;;
74233;SDS011;62591;55.764;37.718;2024-03-02T10:04:38;50.42;;;25.95;;
74233;SDS011;62591;55.764;37.718;2024-03-02T10:07:17;53.67;;;26.00;;
74233;SDS011;62591;55.764;37.718;2024-03-02T10:09:54;47.40;;;25.67;;
74233;SDS011;62591;55.764;37.718;2024-03-02T10:12:27;48.33;;;25.42;;
74233;SDS011;62591;55.764;37.718;2024-03-02T10:15:03;47.47;;;24.40;;
74233;SDS011;62591;55.764;37.718;2024-03-02T10:17:37;48.28;;;24.63;;
74233;SDS011;62591;55.764;37.718;2024-03-02T10:20:27;48.40;;;24.70;;
74233;SDS011;62591;55.764;37.718;2024-03-02T10:23:09;51.10;;;25.13;;
74233;SDS011;62591;55.764;37.718;2024-03-02T10:25:41;48.78;;;25.70;;
74233;SDS011;62591;55.764;37.718;2024-03-02T10:28:25;50.05;;;25.13;;
74233;SDS011;62591;55.764;37.718;2024-03-02T10:30:59;51.65;;;26.25;;
74233;SDS011;62591;55.764;37.718;2024-03-02T10:33:36;44.90;;;23.45;;
74233;SDS011;62591;55.764;37.718;2024-03-02T10:36:07;42.72;;;23.88;;
74233;SDS011;62591;55.764;37.718;2024-03-02T10:38:40;49.92;;;24.42;;
74233;SDS011;62591;55.764;37.718;2024-03-02T10:41:12;52.10;;;23.75;;
74233;SDS011;62591;55.764;37.718;2024-03-02T10:43:56;49.20;;;22.83;;
74233;SDS011;62591;55.764;37.718;2024-03-02T10:46:40;47.67;;;24.95;;
74233;SDS011;62591;55.764;37.718;2024-03-02T10:49:16;45.72;;;24.30;;
74233;SDS011;62591;55.764;37.718;2024-03-02T10:51:49;42.10;;;22.90;;
74233;SDS011;62591;55.764;37.718;2024-03-02T10:54:26;50.28;;;28.55;;
74233;SDS011;62591;55.764;37.718;2024-03-02T10:57:03;52.85;;;25.35;;
74233;SDS011;62591;55.764;37.718;2024-03-02T10:59:37;46.58;;;23.60;;
74233;SDS011;62591;55.764;37.718;2024-03-02T11:02:22;47.20;;;23.45;;
74233;SDS011;62591;55.764;37.718;2024-03-02T11:05:21;46.47;;;23.27;;
74233;SDS011;62591;55.764;37.718;2024-03-02T11:08:05;45.15;;;24.83;;
74233;SDS011;62591;55.764;37.718;2024-03-02T11:10:41;54.95;;;24.77;;
74233;SDS011;62591;55.764;37.718;2024-03-02T11:13:22;44.13;;;24.08;;
74233;SDS011;62591;55.764;37.718;2024-03-02T11:15:59;54.63;;;25.75;;
74233;SDS011;62591;55.764;37.718;2024-03-02T11:18:36;41.45;;;23.50;;
74233;SDS011;62591;55.764;37.718;2024-03-02T11:21:08;47.72;;;25.08;;
74233;SDS011;62591;55.764;37.718;2024-03-02T11:23:47;46.78;;;23.20;;
74233;SDS011;62591;55.764;37.718;2024-03-02T11:26:26;52.53;;;26.30;;
74233;SDS011;62591;55.764;37.718;2024-03-02T11:29:00;44.15;;;24.40;;
74233;SDS011;62591;55.764;37.718;2024-03-02T11:34:31;44.72;;;23.17;;
74233;SDS011;62591;55.764;37.718;2024-03-02T11:37:14;46.53;;;23.23;;
74233;SDS011;62591;55.764;37.718;2024-03-02T11:40:07;45.70;;;23.80;;
74233;SDS011;62591;55.764;37.718;2024-03-02T11:42:45;45.75;;;23.50;;
74233;SDS011;62591;55.764;37.718;2024-03-02T11:45:17;48.13;;;23.50;;
74233;SDS011;62591;55.764;37.718;2024-03-02T11:47:57;40.47;;;23.65;;
74233;SDS011;62591;55.764;37.718;2024-03-02T11:50:29;49.83;;;25.95;;
74233;SDS011;62591;55.764;37.718;2024-03-02T11:53:09;46.35;;;25.52;;
74233;SDS011;62591;55.764;37.718;2024-03-02T11:56:01;44.90;;;23.75;;
74233;SDS011;62591;55.764;37.718;2024-03-02T11:58:40;43.78;;;23.35;;
74233;SDS011;62591;55.764;37.718;2024-03-02T12:01:10;47.08;;;23.55;;
74233;SDS011;62591;55.764;37.718;2024-03-02T12:07:18;44.72;;;23.60;;
74233;SDS011;62591;55.764;37.718;2024-03-02T12:10:01;44.72;;;23.35;;
74233;SDS011;62591;55.764;37.718;2024-03-02T12:15:39;47.42;;;24.70;;
74233;SDS011;62591;55.764;37.718;2024-03-02T12:22:19;47.03;;;24.10;;
74233;SDS011;62591;55.764;37.718;2024-03-02T12:24:53;45.28;;;22.42;;
74233;SDS011;62591;55.764;37.718;2024-03-02T12:27:39;39.53;;;21.20;;
74233;SDS011;62591;55.764;37.718;2024-03-02T12:30:12;40.03;;;20.30;;
74233;SDS011;62591;55.764;37.718;2024-03-02T12:32:45;41.33;;;20.27;;
74233;SDS011;62591;55.764;37.718;2024-03-02T12:35:23;42.15;;;22.33;;
74233;SDS011;62591;55.764;37.718;2024-03-02T12:38:04;38.38;;;21.05;;
74233;SDS011;62591;55.764;37.718;2024-03-02T12:40:41;40.38;;;21.17;;
74233;SDS011;62591;55.764;37.718;2024-03-02T12:43:12;40.55;;;21.40;;
74233;SDS011;62591;55.764;37.718;2024-03-02T12:45:51;38.65;;;20.48;;
74233;SDS011;62591;55.764;37.718;2024-03-02T12:48:29;43.13;;;21.00;;
74233;SDS011;62591;55.764;37.718;2024-03-02T12:51:00;45.63;;;20.98;;
74233;SDS011;62591;55.764;37.718;2024-03-02T12:53:34;36.72;;;19.25;;
74233;SDS011;62591;55.764;37.718;2024-03-02T12:56:08;42.42;;;20.17;;
74233;SDS011;62591;55.764;37.718;2024-03-02T12:58:39;41.10;;;20.88;;
74233;SDS011;62591;55.764;37.718;2024-03-02T13:02:19;40.13;;;20.73;;
74233;SDS011;62591;55.764;37.718;2024-03-02T13:05:14;35.83;;;18.45;;
74233;SDS011;62591;55.764;37.718;2024-03-02T13:07:51;37.03;;;17.98;;
74233;SDS011;62591;55.764;37.718;2024-03-02T13:10:25;33.72;;;17.25;;
74233;SDS011;62591;55.764;37.718;2024-03-02T13:12:59;34.22;;;18.45;;
74233;SDS011;62591;55.764;37.718;2024-03-02T13:15:32;34.17;;;17.70;;
74233;SDS011;62591;55.764;37.718;2024-03-02T13:18:03;38.97;;;18.25;;
74233;SDS011;62591;55.764;37.718;2024-03-02T13:20:36;40.60;;;17.98;;
74233;SDS011;62591;55.764;37.718;2024-03-02T13:23:08;38.80;;;17.67;;
74233;SDS011;62591;55.764;37.718;2024-03-02T13:25:41;38.10;;;18.40;;
74233;SDS011;62591;55.764;37.718;2024-03-02T13:28:15;36.65;;;19.20;;
74233;SDS011;62591;55.764;37.718;2024-03-02T13:30:44;37.53;;;18.00;;
74233;SDS011;62591;55.764;37.718;2024-03-02T13:35:52;36.67;;;17.88;;
74233;SDS011;62591;55.764;37.718;2024-03-02T13:38:43;39.10;;;17.30;;
74233;SDS011;62591;55.764;37.718;2024-03-02T13:41:20;39.15;;;16.95;;
74233;SDS011;62591;55.764;37.718;2024-03-02T13:43:55;32.47;;;16.85;;
74233;SDS011;62591;55.764;37.718;2024-03-02T13:46:26;36.72;;;17.30;;
74233;SDS011;62591;55.764;37.718;2024-03-02T13:49:06;35.38;;;17.70;;
74233;SDS011;62591;55.764;37.718;2024-03-02T13:51:37;32.85;;;17.38;;
74233;SDS011;62591;55.764;37.718;2024-03-02T13:54:06;35.92;;;18.17;;
74233;SDS011;62591;55.764;37.718;2024-03-02T13:56:38;37.70;;;18.52;;
74233;SDS011;62591;55.764;37.718;2024-03-02T13:59:10;38.47;;;19.25;;
74233;SDS011;62591;55.764;37.718;2024-03-02T14:01:45;36.05;;;17.65;;
74233;SDS011;62591;55.764;37.718;2024-03-02T14:04:18;36.58;;;18.50;;
74233;SDS011;62591;55.764;37.718;2024-03-02T14:06:51;35.20;;;18.90;;
74233;SDS011;62591;55.764;37.718;2024-03-02T14:09:20;39.53;;;19.50;;
74233;SDS011;62591;55.764;37.718;2024-03-02T14:11:55;38.22;;;18.80;;
74233;SDS011;62591;55.764;37.718;2024-03-02T14:14:32;39.75;;;20.52;;
74233;SDS011;62591;55.764;37.718;2024-03-02T14:17:07;38.67;;;20.60;;
74233;SDS011;62591;55.764;37.718;2024-03-02T14:19:53;38.00;;;19.08;;
74233;SDS011;62591;55.764;37.718;2024-03-02T14:22:29;39.42;;;19.55;;
74233;SDS011;62591;55.764;37.718;2024-03-02T14:25:00;39.00;;;19.77;;
74233;SDS011;62591;55.764;37.718;2024-03-02T14:27:30;40.78;;;20.20;;
74233;SDS011;62591;55.764;37.718;2024-03-02T14:30:19;33.95;;;18.45;;
74233;SDS011;62591;55.764;37.718;2024-03-02T14:32:54;38.03;;;19.92;;
74233;SDS011;62591;55.764;37.718;2024-03-02T14:35:51;42.08;;;22.50;;
74233;SDS011;62591;55.764;37.718;2024-03-02T14:38:26;39.72;;;19.50;;
74233;SDS011;62591;55.764;37.718;2024-03-02T14:40:58;45.20;;;21.33;;
74233;SDS011;62591;55.764;37.718;2024-03-02T14:43:31;40.22;;;20.52;;
74233;SDS011;62591;55.764;37.718;2024-03-02T14:46:09;38.83;;;20.98;;
74233;SDS011;62591;55.764;37.718;2024-03-02T14:48:56;37.75;;;19.60;;
74233;SDS011;62591;55.764;37.718;2024-03-02T14:51:27;43.83;;;19.88;;
74233;SDS011;62591;55.764;37.718;2024-03-02T14:54:03;40.22;;;21.00;;
74233;SDS011;62591;55.764;37.718;2024-03-02T14:56:35;35.95;;;19.80;;
74233;SDS011;62591;55.764;37.718;2024-03-02T14:59:11;44.60;;;19.48;;
74233;SDS011;62591;55.764;37.718;2024-03-02T15:01:40;42.25;;;19.48;;
74233;SDS011;62591;55.764;37.718;2024-03-02T15:04:24;36.60;;;19.48;;
74233;SDS011;62591;55.764;37.718;2024-03-02T15:06:58;35.53;;;19.27;;
74233;SDS011;62591;55.764;37.718;2024-03-02T15:09:34;36.25;;;19.42;;
74233;SDS011;62591;55.764;37.718;2024-03-02T15:12:12;37.88;;;21.63;;
74233;SDS011;62591;55.764;37.718;2024-03-02T15:14:42;35.92;;;18.83;;
74233;SDS011;62591;55.764;37.718;2024-03-02T15:17:19;39.35;;;20.80;;